.
WxDataArchive / Data Records for 2009-03-15
2009-03-14 March 2009 2009-03-16

Data Records for Sunday, 15 March 2009

Time	Temp	Chill	HIndex	Humid	Dewpt	 Wind 	HiWind	WindDir	Rain 	Barom 
-----	----	-----	------	-----	-----	------	------	-------	-----	----- 
00:00	29.0	29.0	29.0	82	24.2	0	0	---	0.00	30.157 
00:05	29.0	29.0	29.0	83	24.5	0	0	---	0.00	30.156 
00:10	29.0	29.0	29.0	83	24.5	0	0	---	0.00	30.155 
00:15	29.0	29.0	29.0	83	24.5	0	0	---	0.00	30.153 
00:20	29.0	29.0	29.0	83	24.5	0	0	---	0.00	30.149 
00:25	29.0	29.0	29.0	83	24.5	0	0	---	0.00	30.146 
00:30	29.0	29.0	29.0	84	24.8	0	0	---	0.00	30.145 
00:35	29.0	29.0	29.0	84	24.8	0	0	---	0.00	30.145 
00:40	29.0	29.0	29.0	84	24.8	0	0	---	0.00	30.143 
00:45	29.0	29.0	29.0	84	24.8	0	0	---	0.00	30.144 
00:50	28.8	28.8	28.8	84	24.6	0	0	---	0.00	30.143 
00:55	28.8	28.8	28.8	84	24.6	0	0	---	0.00	30.142 
01:00	28.8	28.8	28.8	84	24.6	0	0	---	0.00	30.141 
01:05	28.8	28.8	28.8	85	24.9	0	0	---	0.00	30.139 
01:10	28.8	28.8	28.8	85	24.9	0	0	---	0.00	30.138 
01:15	29.0	29.0	29.0	85	25.1	0	0	---	0.00	30.137 
01:20	29.0	29.0	29.0	86	25.3	0	0	---	0.00	30.136 
01:25	28.8	28.8	28.8	86	25.2	0	0	---	0.00	30.136 
01:30	28.7	28.7	28.7	86	25.1	0	0	---	0.00	30.138 
01:35	28.7	28.7	28.7	86	25.1	0	0	---	0.00	30.139 
01:40	28.7	28.7	28.7	87	25.3	0	0	---	0.00	30.139 
01:45	28.7	28.7	28.7	87	25.3	0	0	---	0.00	30.140 
01:50	28.7	28.7	28.7	87	25.3	0	0	---	0.00	30.139 
01:55	28.5	28.5	28.5	88	25.4	0	0	---	0.00	30.138 
02:00	28.4	28.4	28.4	88	25.3	0	0	---	0.00	30.139 
02:05	28.2	28.2	28.2	88	25.1	0	0	---	0.00	30.137 
02:10	28.2	28.2	28.2	88	25.1	0	0	---	0.00	30.136 
02:15	28.1	28.1	28.1	88	25.0	0	0	---	0.00	30.137 
02:20	27.9	27.9	27.9	88	24.8	0	0	---	0.00	30.136 
02:25	27.9	27.9	27.9	89	25.1	0	0	---	0.00	30.134 
02:30	27.8	27.8	27.8	89	25.0	0	0	---	0.00	30.137 
02:35	27.6	27.6	27.6	89	24.8	0	0	---	0.00	30.137 
02:40	27.5	27.5	27.5	89	24.7	0	0	---	0.00	30.137 
02:45	27.5	27.5	27.5	89	24.7	0	0	---	0.00	30.137 
02:50	27.5	27.5	27.5	90	25.0	0	0	---	0.00	30.133 
02:55	27.5	27.5	27.5	90	25.0	0	0	---	0.00	30.133 
03:00	27.5	27.5	27.5	90	25.0	0	0	---	0.00	30.129 
03:05	27.5	27.5	27.5	90	25.0	0	0	---	0.00	30.130 
03:10	27.5	27.5	27.5	90	25.0	0	0	---	0.00	30.129 
03:15	27.5	27.5	27.5	91	25.2	0	0	---	0.00	30.129 
03:20	27.5	27.5	27.5	91	25.2	0	0	---	0.00	30.129 
03:25	27.3	27.3	27.3	90	24.8	0	0	---	0.00	30.128 
03:30	27.3	27.3	27.3	90	24.8	0	0	---	0.00	30.127 
03:35	27.2	27.2	27.2	91	24.9	0	0	---	0.00	30.126 
03:40	27.2	27.2	27.2	91	24.9	0	0	---	0.00	30.125 
03:45	27.0	27.0	27.0	91	24.7	0	0	---	0.00	30.124 
03:50	27.0	27.0	27.0	91	24.7	0	0	---	0.00	30.125 
03:55	26.9	26.9	26.9	91	24.6	0	0	---	0.00	30.125 
04:00	26.9	26.9	26.9	91	24.6	0	0	---	0.00	30.126 
04:05	26.7	26.7	26.7	91	24.4	0	0	---	0.00	30.126 
04:10	26.7	26.7	26.7	91	24.4	0	0	---	0.00	30.126 
04:15	26.6	26.6	26.6	91	24.3	0	0	---	0.00	30.125 
04:20	26.4	26.4	26.4	91	24.1	0	0	---	0.00	30.126 
04:25	26.4	26.4	26.4	91	24.1	0	0	---	0.00	30.129 
04:30	26.3	26.3	26.3	91	24.0	0	0	---	0.00	30.128 
04:35	26.3	26.3	26.3	91	24.0	0	0	---	0.00	30.129 
04:40	26.3	26.3	26.3	92	24.3	0	0	---	0.00	30.131 
04:45	26.3	26.3	26.3	92	24.3	0	0	---	0.00	30.134 
04:50	26.1	26.1	26.1	92	24.1	0	0	---	0.00	30.136 
04:55	26.1	26.1	26.1	92	24.1	0	0	---	0.00	30.138 
05:00	26.0	26.0	26.0	92	24.0	0	0	---	0.00	30.136 
05:05	25.8	25.8	25.8	92	23.8	0	0	---	0.00	30.137 
05:10	25.7	25.7	25.7	92	23.7	0	0	---	0.00	30.139 
05:15	25.6	25.6	25.6	92	23.6	0	0	---	0.00	30.141 
05:20	25.6	25.6	25.6	92	23.6	0	0	---	0.00	30.141 
05:25	25.4	25.4	25.4	92	23.4	0	0	---	0.00	30.143 
05:30	25.4	25.4	25.4	92	23.4	0	0	---	0.00	30.144 
05:35	25.4	25.4	25.4	92	23.4	0	0	---	0.00	30.146 
05:40	25.4	25.4	25.4	92	23.4	0	0	---	0.00	30.148 
05:45	25.4	25.4	25.4	92	23.4	0	0	---	0.00	30.151 
05:50	25.4	25.4	25.4	92	23.4	0	0	---	0.00	30.152 
05:55	25.4	25.4	25.4	92	23.4	0	0	---	0.00	30.154 
06:00	25.3	25.3	25.3	92	23.3	0	0	---	0.00	30.157 
06:05	25.3	25.3	25.3	92	23.3	0	0	---	0.00	30.163 
06:10	25.3	25.3	25.3	92	23.3	0	0	---	0.00	30.162 
06:15	25.1	25.1	25.1	92	23.1	0	0	---	0.00	30.162 
06:20	25.1	25.1	25.1	92	23.1	0	0	---	0.00	30.162 
06:25	25.1	25.1	25.1	92	23.1	0	0	---	0.00	30.162 
06:30	25.1	25.1	25.1	92	23.1	0	0	---	0.00	30.162 
06:35	25.1	25.1	25.1	92	23.1	0	0	---	0.00	30.163 
06:40	25.1	25.1	25.1	92	23.1	0	0	---	0.00	30.163 
06:45	25.1	25.1	25.1	92	23.1	0	0	---	0.00	30.164 
06:50	25.1	25.1	25.1	92	23.1	0	0	---	0.00	30.164 
06:55	25.1	25.1	25.1	92	23.1	0	0	---	0.00	30.165 
07:00	25.3	25.3	25.3	92	23.3	0	0	---	0.00	30.165 
07:05	25.3	25.3	25.3	92	23.3	0	0	---	0.00	30.168 
07:10	25.6	25.6	25.6	92	23.6	0	1	90	0.00	30.168 
07:15	26.1	26.1	26.1	92	24.1	0	1	90	0.00	30.165 
07:20	27.0	27.0	27.0	93	25.3	0	1	90	0.00	30.165 
07:25	28.2	28.2	28.2	92	26.2	0	2	90	0.00	30.163 
07:30	29.4	29.4	29.4	90	26.8	1	3	90	0.00	30.164 
07:35	30.4	30.4	30.4	86	26.7	0	1	112	0.00	30.161 
07:40	31.3	31.3	31.3	82	26.5	1	3	22	0.00	30.162 
07:45	32.2	32.2	32.2	77	25.8	1	3	68	0.00	30.162 
07:50	32.9	32.9	32.9	74	25.5	0	3	90	0.00	30.163 
07:55	33.7	33.7	33.7	72	25.7	1	4	90	0.00	30.168 
08:00	34.3	34.3	34.3	69	25.2	1	3	112	0.00	30.171 
08:05	34.7	34.7	34.7	68	25.2	1	4	112	0.00	30.175 
08:10	35.0	35.0	35.0	66	24.8	1	4	112	0.00	30.177 
08:15	35.2	35.2	35.2	66	25.0	1	3	112	0.00	30.178 
08:20	35.6	35.6	35.6	65	25.0	2	4	112	0.00	30.177 
08:25	36.2	36.2	36.2	64	25.2	2	6	112	0.00	30.178 
08:30	36.6	36.6	36.6	63	25.2	2	4	90	0.00	30.179 
08:35	37.0	37.0	37.0	62	25.2	3	5	90	0.00	30.182 
08:40	37.3	37.3	37.3	62	25.5	2	6	90	0.00	30.183 
08:45	37.5	37.5	37.5	62	25.7	3	6	112	0.00	30.182 
08:50	37.6	37.6	37.6	63	26.2	1	6	112	0.00	30.184 
08:55	38.0	38.0	38.0	62	26.2	2	5	112	0.00	30.184 
09:00	38.5	38.5	38.5	62	26.6	1	4	90	0.00	30.185 
09:05	39.1	39.1	39.1	62	27.2	2	4	90	0.00	30.185 
09:10	39.6	39.6	39.6	61	27.3	2	4	90	0.00	30.184 
09:15	39.9	39.9	39.9	60	27.2	2	5	90	0.00	30.185 
09:20	40.3	40.3	40.3	59	27.1	3	6	112	0.00	30.187 
09:25	40.8	40.8	40.8	58	27.2	2	4	112	0.00	30.186 
09:30	41.5	41.5	41.5	58	27.8	2	5	112	0.00	30.187 
09:35	42.1	42.1	42.1	56	27.5	2	6	112	0.00	30.188 
09:40	42.3	42.3	42.3	55	27.3	3	5	112	0.00	30.191 
09:45	42.6	42.6	42.6	57	28.4	3	5	112	0.00	30.189 
09:50	43.3	43.3	43.3	56	28.7	2	6	112	0.00	30.189 
09:55	43.9	43.9	43.9	54	28.3	2	6	112	0.00	30.187 
10:00	44.3	44.3	44.3	55	29.2	2	4	112	0.00	30.187 
10:05	44.8	44.8	44.8	55	29.6	2	4	90	0.00	30.188 
10:10	45.1	45.1	45.1	54	29.5	3	6	112	0.00	30.191 
10:15	45.8	45.8	45.8	55	30.6	1	4	112	0.00	30.195 
10:20	46.7	45.1	46.7	49	28.6	4	6	90	0.00	30.196 
10:25	47.3	47.3	47.3	47	28.1	3	5	90	0.00	30.197 
10:30	48.0	48.0	48.0	46	28.2	3	4	112	0.00	30.198 
10:35	48.3	46.9	48.3	44	27.4	4	9	90	0.00	30.198 
10:40	48.6	48.6	48.6	43	27.1	3	5	90	0.00	30.196 
10:45	48.9	48.9	48.9	41	26.2	3	9	112	0.00	30.196 
10:50	48.8	47.5	48.8	43	27.3	4	10	112	0.00	30.198 
10:55	49.2	49.2	49.2	44	28.2	3	6	90	0.00	30.196 
11:00	49.5	48.3	49.5	42	27.4	4	8	112	0.00	30.196 
11:05	49.8	48.6	49.8	44	28.8	4	7	90	0.00	30.198 
11:10	50.1	50.1	50.1	44	29.0	4	7	112	0.00	30.198 
11:15	50.4	50.4	50.4	43	28.8	4	10	112	0.00	30.198 
11:20	50.5	50.5	50.5	43	28.8	4	11	90	0.00	30.199 
11:25	50.7	50.7	50.7	42	28.5	4	9	112	0.00	30.197 
11:30	51.0	51.0	51.0	41	28.1	5	10	112	0.00	30.198 
11:35	51.4	51.4	51.4	38	26.7	4	9	112	0.00	30.196 
11:40	51.7	51.7	51.7	39	27.6	3	7	112	0.00	30.196 
11:45	52.2	52.2	52.2	40	28.6	4	9	112	0.00	30.196 
11:50	52.5	52.5	52.5	37	27.0	4	10	112	0.00	30.196 
11:55	52.6	52.6	52.6	36	26.4	4	10	112	0.00	30.195 
12:00	52.6	52.6	52.6	38	27.7	4	7	90	0.00	30.194 
12:05	52.6	52.6	52.6	34	25.0	3	6	112	0.00	30.191 
12:10	52.5	52.5	52.5	35	25.6	4	10	112	0.00	30.191 
12:15	52.8	52.8	52.8	35	25.9	4	7	112	0.00	30.190 
12:20	53.2	53.2	53.2	33	24.9	5	9	112	0.00	30.187 
12:25	53.3	53.3	53.3	36	27.0	4	12	90	0.00	30.186 
12:30	54.1	54.1	54.1	33	25.6	4	10	90	0.00	30.184 
12:35	53.8	53.8	53.8	34	26.1	5	10	90	0.00	30.182 
12:40	54.1	54.1	54.1	31	24.1	4	10	90	0.00	30.181 
12:45	54.2	54.2	54.2	36	27.8	4	7	112	0.00	30.179 
12:50	54.7	54.7	54.7	32	25.4	3	10	112	0.00	30.177 
12:55	54.7	54.7	54.7	34	26.9	4	9	112	0.00	30.174 
13:00	55.1	55.1	55.1	32	25.8	3	10	112	0.00	30.169 
13:05	54.8	54.8	54.8	33	26.3	4	10	112	0.00	30.170 
13:10	54.8	54.8	54.8	32	25.5	5	10	112	0.00	30.166 
13:15	55.1	55.1	55.1	29	23.4	4	8	112	0.00	30.165 
13:20	55.3	55.3	55.3	30	24.4	4	11	90	0.00	30.164 
13:25	55.6	55.6	55.6	31	25.5	4	11	90	0.00	30.162 
13:30	55.7	55.7	55.7	32	26.3	3	7	112	0.00	30.154 
13:35	55.7	55.7	55.7	29	23.9	5	9	112	0.00	30.152 
13:40	55.9	55.9	55.9	32	26.5	2	9	90	0.00	30.147 
13:45	56.2	56.2	56.2	30	25.2	4	10	90	0.00	30.146 
13:50	55.9	55.9	55.9	31	25.7	4	10	112	0.00	30.141 
13:55	56.0	56.0	56.0	32	26.6	3	9	112	0.00	30.139 
14:00	56.2	56.2	56.2	30	25.2	3	10	112	0.00	30.134 
14:05	56.0	56.0	56.0	29	24.2	3	9	90	0.00	30.133 
14:10	55.7	55.7	55.7	30	24.8	5	10	112	0.00	30.133 
14:15	55.6	55.6	55.6	32	26.2	4	11	112	0.00	30.136 
14:20	55.9	55.9	55.9	31	25.7	2	6	112	0.00	30.132 
14:25	55.7	55.7	55.7	30	24.8	3	6	112	0.00	30.132 
14:30	55.9	55.9	55.9	30	24.9	3	9	112	0.00	30.131 
14:35	55.6	55.6	55.6	28	23.0	4	10	112	0.00	30.131 
14:40	55.6	55.6	55.6	30	24.7	4	12	112	0.00	30.131 
14:45	55.3	55.3	55.3	31	25.2	3	9	112	0.00	30.132 
14:50	55.6	55.6	55.6	31	25.5	4	9	90	0.00	30.129 
14:55	55.7	55.7	55.7	30	24.8	4	9	112	0.00	30.130 
15:00	55.9	55.9	55.9	30	24.9	3	9	112	0.00	30.130 
15:05	56.2	56.2	56.2	29	24.4	2	5	112	0.00	30.131 
15:10	56.3	56.3	56.3	28	23.6	2	6	90	0.00	30.129 
15:15	56.3	56.3	56.3	29	24.5	4	7	112	0.00	30.132 
15:20	56.0	56.0	56.0	30	25.0	4	10	112	0.00	30.133 
15:25	55.9	55.9	55.9	31	25.7	4	7	112	0.00	30.133 
15:30	55.9	55.9	55.9	30	24.9	3	7	112	0.00	30.132 
15:35	55.7	55.7	55.7	29	23.9	3	10	112	0.00	30.131 
15:40	55.7	55.7	55.7	29	23.9	4	9	112	0.00	30.129 
15:45	55.7	55.7	55.7	28	23.1	3	5	112	0.00	30.132 
15:50	55.7	55.7	55.7	28	23.1	2	6	90	0.00	30.134 
15:55	55.7	55.7	55.7	27	22.2	3	9	112	0.00	30.140 
16:00	55.6	55.6	55.6	28	23.0	2	6	112	0.00	30.144 
16:05	55.9	55.9	55.9	29	24.1	1	4	90	0.00	30.142 
16:10	55.9	55.9	55.9	27	22.4	2	5	112	0.00	30.141 
16:15	55.9	55.9	55.9	28	23.3	2	6	112	0.00	30.144 
16:20	55.7	55.7	55.7	28	23.1	3	8	90	0.00	30.145 
16:25	55.7	55.7	55.7	29	23.9	2	6	112	0.00	30.146 
16:30	55.7	55.7	55.7	28	23.1	2	6	112	0.00	30.148 
16:35	55.7	55.7	55.7	28	23.1	1	3	90	0.00	30.147 
16:40	55.7	55.7	55.7	28	23.1	1	4	112	0.00	30.148 
16:45	55.7	55.7	55.7	28	23.1	1	4	112	0.00	30.147 
16:50	55.7	55.7	55.7	28	23.1	2	4	112	0.00	30.148 
16:55	55.7	55.7	55.7	29	23.9	2	4	112	0.00	30.147 
17:00	55.6	55.6	55.6	30	24.7	2	4	112	0.00	30.143 
17:05	55.4	55.4	55.4	27	22.0	2	7	112	0.00	30.145 
17:10	55.3	55.3	55.3	28	22.8	2	5	112	0.00	30.146 
17:15	55.3	55.3	55.3	28	22.8	2	7	112	0.00	30.148 
17:20	55.3	55.3	55.3	27	21.9	2	6	45	0.00	30.150 
17:25	55.1	55.1	55.1	27	21.7	2	4	90	0.00	30.151 
17:30	55.1	55.1	55.1	27	21.7	2	5	90	0.00	30.151 
17:35	55.0	55.0	55.0	28	22.5	2	6	90	0.00	30.151 
17:40	54.8	54.8	54.8	29	23.2	2	7	90	0.00	30.149 
17:45	54.7	54.7	54.7	29	23.1	2	6	112	0.00	30.150 
17:50	54.5	54.5	54.5	30	23.7	2	5	112	0.00	30.151 
17:55	54.4	54.4	54.4	31	24.4	1	6	112	0.00	30.151 
18:00	54.1	54.1	54.1	33	25.6	1	4	112	0.00	30.153 
18:05	53.9	53.9	53.9	32	24.7	2	5	90	0.00	30.153 
18:10	53.6	53.6	53.6	34	25.9	2	4	90	0.00	30.152 
18:15	53.5	53.5	53.5	34	25.8	2	4	112	0.00	30.152 
18:20	53.2	53.2	53.2	35	26.3	2	4	112	0.00	30.153 
18:25	52.9	52.9	52.9	36	26.7	1	4	112	0.00	30.153 
18:30	52.6	52.6	52.6	37	27.1	1	4	112	0.00	30.153 
18:35	52.2	52.2	52.2	37	26.7	1	5	112	0.00	30.155 
18:40	51.9	51.9	51.9	39	27.7	1	3	90	0.00	30.155 
18:45	51.4	51.4	51.4	40	27.9	1	3	90	0.00	30.157 
18:50	51.0	51.0	51.0	41	28.1	0	2	90	0.00	30.157 
18:55	50.4	50.4	50.4	41	27.6	0	1	90	0.00	30.160 
19:00	49.8	49.8	49.8	42	27.6	0	1	90	0.00	30.164 
19:05	49.4	49.4	49.4	42	27.3	0	0	---	0.00	30.157 
19:10	48.9	48.9	48.9	43	27.4	0	1	90	0.00	30.160 
19:15	48.3	48.3	48.3	43	26.9	0	0	---	0.00	30.163 
19:20	47.9	47.9	47.9	44	27.0	0	0	---	0.00	30.162 
19:25	47.4	47.4	47.4	45	27.1	0	1	90	0.00	30.161 
19:30	47.0	47.0	47.0	46	27.3	0	0	---	0.00	30.165 
19:35	46.5	46.5	46.5	46	26.8	0	0	---	0.00	30.165 
19:40	46.2	46.2	46.2	47	27.1	0	0	---	0.00	30.165 
19:45	46.1	46.1	46.1	47	27.0	0	1	90	0.00	30.166 
19:50	46.0	46.0	46.0	47	26.9	0	1	90	0.00	30.166 
19:55	45.8	45.8	45.8	47	26.7	0	1	90	0.00	30.166 
20:00	45.8	45.8	45.8	47	26.7	0	2	90	0.00	30.166 
20:05	45.8	45.8	45.8	47	26.7	0	1	90	0.00	30.163 
20:10	45.8	45.8	45.8	47	26.7	1	3	90	0.00	30.163 
20:15	45.8	45.8	45.8	46	26.2	1	3	90	0.00	30.163 
20:20	46.1	46.1	46.1	45	26.0	2	5	90	0.00	30.166 
20:25	46.1	46.1	46.1	45	26.0	2	4	90	0.00	30.172 
20:30	46.0	46.0	46.0	46	26.4	1	3	90	0.00	30.177 
20:35	45.7	45.7	45.7	47	26.6	1	4	90	0.00	30.177 
20:40	45.4	45.4	45.4	47	26.4	2	5	90	0.00	30.174 
20:45	45.1	45.1	45.1	47	26.1	2	5	112	0.00	30.176 
20:50	44.9	44.9	44.9	47	25.9	3	5	112	0.00	30.177 
20:55	44.8	44.8	44.8	48	26.3	2	5	90	0.00	30.176 
21:00	44.6	44.6	44.6	48	26.1	3	6	90	0.00	30.179 
21:05	44.3	44.3	44.3	49	26.4	2	4	90	0.00	30.176 
21:10	43.9	43.9	43.9	50	26.5	1	3	90	0.00	30.176 
21:15	43.6	43.6	43.6	51	26.7	0	2	90	0.00	30.178 
21:20	43.2	43.2	43.2	52	26.8	0	1	90	0.00	30.185 
21:25	42.8	42.8	42.8	53	26.9	0	2	90	0.00	30.184 
21:30	42.5	42.5	42.5	53	26.6	1	3	90	0.00	30.186 
21:35	42.3	42.3	42.3	52	25.9	1	3	90	0.00	30.184 
21:40	42.3	42.3	42.3	52	25.9	1	3	90	0.00	30.183 
21:45	42.2	42.2	42.2	51	25.4	1	4	90	0.00	30.190 
21:50	42.1	42.1	42.1	52	25.8	1	2	90	0.00	30.191 
21:55	41.9	41.9	41.9	52	25.6	0	2	90	0.00	30.192 
22:00	41.6	41.6	41.6	53	25.8	0	2	90	0.00	30.192 
22:05	41.2	41.2	41.2	54	25.8	0	2	90	0.00	30.188 
22:10	40.9	40.9	40.9	55	26.0	0	1	90	0.00	30.188 
22:15	40.5	40.5	40.5	55	25.6	0	0	---	0.00	30.189 
22:20	40.1	40.1	40.1	56	25.7	0	0	---	0.00	30.189 
22:25	39.6	39.6	39.6	57	25.6	0	1	90	0.00	30.189 
22:30	39.3	39.3	39.3	58	25.8	0	1	90	0.00	30.192 
22:35	39.2	39.2	39.2	58	25.7	0	1	90	0.00	30.192 
22:40	39.1	39.1	39.1	58	25.6	0	1	90	0.00	30.193 
22:45	38.9	38.9	38.9	58	25.4	0	2	90	0.00	30.193 
22:50	38.8	38.8	38.8	58	25.3	0	1	90	0.00	30.194 
22:55	38.6	38.6	38.6	58	25.1	0	1	90	0.00	30.198 
23:00	38.5	38.5	38.5	58	25.0	0	1	90	0.00	30.201 
23:05	38.5	38.5	38.5	58	25.0	0	1	90	0.00	30.197 
23:10	38.5	38.5	38.5	57	24.6	1	2	90	0.00	30.201 
23:15	38.6	38.6	38.6	56	24.3	1	3	90	0.00	30.201 
23:20	38.9	38.9	38.9	54	23.7	1	4	90	0.00	30.204 
23:25	39.2	39.2	39.2	54	24.0	1	3	90	0.00	30.203 
23:30	39.2	39.2	39.2	55	24.4	0	2	90	0.00	30.202 
23:35	39.1	39.1	39.1	55	24.3	0	1	90	0.00	30.201 
23:40	38.9	38.9	38.9	56	24.6	0	1	90	0.00	30.199 
23:45	38.6	38.6	38.6	56	24.3	1	2	90	0.00	30.192 
23:50	38.6	38.6	38.6	55	23.8	1	3	90	0.00	30.192 
23:55	38.5	38.5	38.5	55	23.8	0	2	90	0.00	30.195 

CoCoRaHS
IN-AL-39
A2 Web Hosting
Creative Commons License
GoDaddy
search engine by freefind advanced

loaded 2018-11-19 19:51:20 • last modified 2010-11-18 10:43:29
Privacy PolicyDisclaimer
• wx.awcolley.com is powered by PmWiki v.2002016 •
• all content (unless otherwise noted) © 2018 A W Colley